Time;durP1;ratioP1;P1;durP2;ratioP2;P2;SDS_P1;SDS_P2;PMS_P1;PMS_P2;Temp;Humidity;BMP_temperature;BMP_pressure;BME280_temperature;BME280_humidity;BME280_pressure;Samples;Min_cycle;Max_cycle;Signal;HPM_P1;HPM_P2
2023/06/13 00:04:48;;;;;;;4.17;3.40;;;;;;;9.08;89.04;96557.47;10515540;28;20218;-73
2023/06/13 00:09:48;;;;;;;4.87;3.77;;;;;;;9.02;89.79;96565.06;10533592;28;20222;-72
2023/06/13 00:14:50;;;;;;;5.73;4.00;;;;;;;8.97;89.72;96556.88;10533278;28;20233;-73
2023/06/13 00:19:54;;;;;;;3.80;3.30;;;;;;;8.92;89.62;96558.13;10533110;28;20666;-73
2023/06/13 00:24:54;;;;;;;4.07;3.33;;;;;;;8.92;89.58;96552.91;10533279;28;20182;-73
2023/06/13 00:29:54;;;;;;;3.50;3.20;;;;;;;8.85;89.73;96553.66;10533341;28;20274;-73
2023/06/13 00:34:55;;;;;;;6.33;3.60;;;;;;;8.75;90.58;96548.53;10532987;28;20191;-72
2023/06/13 00:39:55;;;;;;;3.40;3.10;;;;;;;8.81;89.82;96541.88;10514936;28;20206;-73
2023/06/13 00:45:17;;;;;;;5.97;3.47;;;;;;;8.84;88.65;96546.81;10532904;28;20183;-72
2023/06/13 00:50:26;;;;;;;6.53;3.80;;;;;;;8.63;90.66;96549.72;10514746;28;20214;-73
2023/06/13 00:55:28;;;;;;;5.27;3.70;;;;;;;8.51;91.77;96547.28;10498421;28;20244;-73
2023/06/13 01:00:30;;;;;;;4.03;3.00;;;;;;;8.60;90.66;96539.56;10496840;28;20600;-73
2023/06/13 01:05:30;;;;;;;6.70;3.60;;;;;;;8.54;90.82;96533.94;10513601;28;20563;-73
2023/06/13 01:10:32;;;;;;;4.53;3.43;;;;;;;8.49;90.30;96530.97;10535703;28;20202;-72
2023/06/13 01:15:35;;;;;;;7.17;3.60;;;;;;;8.29;91.98;96543.28;10521058;28;20194;-72
2023/06/13 01:20:37;;;;;;;8.07;3.83;;;;;;;8.31;91.71;96525.69;10504860;28;20809;-73
2023/06/13 01:26:07;;;;;;;7.17;3.87;;;;;;;8.34;91.89;96519.38;10539161;28;20655;-72
2023/06/13 01:31:11;;;;;;;6.17;3.50;;;;;;;8.32;90.71;96522.13;10512440;28;20234;-72
2023/06/13 01:36:12;;;;;;;6.37;3.70;;;;;;;8.31;90.73;96514.44;10520758;28;20199;-73
2023/06/13 01:41:12;;;;;;;3.70;3.30;;;;;;;8.14;91.88;96522.09;10538467;28;20693;-73
2023/06/13 01:46:21;;;;;;;5.57;3.80;;;;;;;8.20;91.16;96512.84;10503525;28;20194;-72
2023/06/13 01:51:29;;;;;;;5.87;3.67;;;;;;;8.17;91.19;96518.38;10520108;28;20207;-72
2023/06/13 01:56:31;;;;;;;4.50;3.37;;;;;;;8.13;90.63;96511.78;10520076;28;20191;-72
2023/06/13 02:01:35;;;;;;;5.80;3.50;;;;;;;7.88;92.04;96516.72;10502573;28;20230;-73
2023/06/13 02:06:36;;;;;;;5.43;3.30;;;;;;;7.81;93.06;96513.88;10519410;28;20187;-72
2023/06/13 02:11:37;;;;;;;9.10;3.43;;;;;;;7.70;93.96;96519.25;10537498;28;20197;-73
2023/06/13 02:16:39;;;;;;;5.77;3.53;;;;;;;7.61;94.46;96528.78;10536922;28;20205;-73
2023/06/13 02:21:45;;;;;;;4.60;3.00;;;;;;;7.60;94.86;96521.09;10556128;28;20189;-72
2023/06/13 02:26:46;;;;;;;6.40;4.50;;;;;;;7.73;93.81;96510.34;10579185;28;20202;-72
2023/06/13 02:31:46;;;;;;;6.17;3.77;;;;;;;7.71;92.47;96513.09;10578621;28;20207;-72
2023/06/13 02:36:47;;;;;;;5.83;3.13;;;;;;;7.69;92.19;96515.03;10578465;28;20705;-73
2023/06/13 02:41:47;;;;;;;3.97;3.03;;;;;;;7.71;91.51;96513.09;10560256;28;20266;-72
2023/06/13 02:46:48;;;;;;;7.17;3.37;;;;;;;7.60;91.80;96503.66;10552499;28;20218;-72
2023/06/13 02:51:48;;;;;;;4.77;3.40;;;;;;;7.50;93.12;96518.50;10476462;28;20655;-73
2023/06/13 02:56:49;;;;;;;4.70;3.30;;;;;;;7.40;93.71;96510.72;10475579;28;20708;-72
2023/06/13 03:01:49;;;;;;;6.13;3.30;;;;;;;7.28;95.03;96509.25;10475849;28;20313;-72
2023/06/13 03:06:50;;;;;;;4.30;3.70;;;;;;;7.27;95.19;96508.44;10531746;28;20211;-72
2023/06/13 03:11:51;;;;;;;8.93;4.33;;;;;;;7.22;95.00;96502.81;10513108;28;20240;-72
2023/06/13 03:16:52;;;;;;;9.73;3.43;;;;;;;7.24;95.08;96494.88;10512986;28;20251;-73
2023/06/13 03:21:53;;;;;;;6.63;3.13;;;;;;;7.21;95.21;96490.75;10512910;28;20662;-72
2023/06/13 03:26:54;;;;;;;11.37;3.27;;;;;;;7.16;95.83;96497.38;10531100;28;20351;-72
2023/06/13 03:31:55;;;;;;;6.67;3.37;;;;;;;7.13;95.78;96488.84;10512114;28;20376;-72
2023/06/13 03:36:55;;;;;;;5.50;3.00;;;;;;;7.08;96.26;96491.06;10530787;28;20260;-72
2023/06/13 03:41:57;;;;;;;5.57;3.27;;;;;;;7.17;95.40;96489.41;10512439;28;20182;-72
2023/06/13 03:46:58;;;;;;;2.83;2.30;;;;;;;7.18;95.13;96491.03;10512138;28;20210;-73
2023/06/13 03:51:58;;;;;;;7.60;3.63;;;;;;;7.20;95.07;96489.13;10530300;28;20650;-71
2023/06/13 03:56:58;;;;;;;3.33;2.83;;;;;;;7.28;94.99;96480.59;10512256;28;20248;-72
2023/06/13 04:01:59;;;;;;;6.17;2.90;;;;;;;7.34;94.39;96485.25;10512811;28;20234;-71
2023/06/13 04:07:05;;;;;;;7.10;3.17;;;;;;;7.59;93.41;96475.13;10514903;28;20210;-72
2023/06/13 04:12:06;;;;;;;4.17;3.03;;;;;;;7.79;92.34;96481.09;10532681;28;20190;-72
2023/06/13 04:17:09;;;;;;;4.23;3.00;;;;;;;7.99;90.92;96477.44;10514192;28;20247;-72
2023/06/13 04:22:10;;;;;;;5.13;3.07;;;;;;;8.21;89.64;96468.34;10514749;28;20194;-72
2023/06/13 04:27:13;;;;;;;5.23;3.10;;;;;;;8.42;88.45;96475.06;10514776;28;20556;-72
2023/06/13 04:32:17;;;;;;;4.10;2.60;;;;;;;8.59;87.87;96481.31;10515446;28;20222;-72
2023/06/13 04:37:23;;;;;;;3.10;2.70;;;;;;;8.65;86.99;96470.28;10532919;28;20694;-72
2023/06/13 04:42:27;;;;;;;3.40;2.60;;;;;;;8.90;86.23;96471.28;10532523;28;20199;-72
2023/06/13 04:47:30;;;;;;;6.33;3.20;;;;;;;9.15;85.50;96473.25;10539442;28;20226;-72
2023/06/13 04:52:33;;;;;;;8.97;3.60;;;;;;;9.50;83.79;96453.19;10540364;28;20194;-72
2023/06/13 04:57:33;;;;;;;7.20;3.20;;;;;;;9.78;82.65;96443.31;10540568;28;20356;-72
2023/06/13 05:02:35;;;;;;;3.43;2.67;;;;;;;10.03;82.28;96456.47;10540248;28;20281;-72
2023/06/13 05:07:35;;;;;;;8.87;3.03;;;;;;;10.22;81.67;96455.41;10539911;28;20305;-72
2023/06/13 05:12:36;;;;;;;5.63;2.90;;;;;;;10.34;81.78;96446.28;10521837;28;20206;-71
2023/06/13 05:17:37;;;;;;;5.07;2.87;;;;;;;10.63;80.38;96437.97;10539590;28;20593;-72
2023/06/13 05:22:39;;;;;;;7.35;3.58;;;;;;;10.80;80.24;96437.97;10539255;28;20643;-72
2023/06/13 05:27:39;;;;;;;4.43;3.03;;;;;;;10.88;81.36;96446.63;10539672;28;20226;-72
2023/06/13 05:32:41;;;;;;;7.18;3.00;;;;;;;11.27;80.53;96447.72;10538748;28;20206;-72
2023/06/13 05:37:43;;;;;;;5.60;2.83;;;;;;;11.86;79.22;96431.59;10539070;28;20437;-72
2023/06/13 05:42:44;;;;;;;7.95;3.85;;;;;;;12.29;76.88;96416.28;10538497;28;20198;-72
2023/06/13 05:47:44;;;;;;;5.10;3.05;;;;;;;12.80;75.62;96407.88;10538551;28;20280;-72
2023/06/13 05:52:44;;;;;;;7.82;3.22;;;;;;;13.31;72.80;96383.53;10514469;28;20190;-72
2023/06/13 05:57:45;;;;;;;6.30;3.10;;;;;;;13.65;71.47;96371.63;10495800;28;20293;-72
2023/06/13 06:02:46;;;;;;;3.60;2.80;;;;;;;13.91;70.50;96368.47;10496210;28;20187;-72
2023/06/13 06:07:47;;;;;;;7.80;3.10;;;;;;;14.50;70.27;96376.34;10495697;28;20313;-72
2023/06/13 06:12:47;;;;;;;4.13;2.97;;;;;;;15.26;67.05;96342.22;10491272;28;20273;-71
2023/06/13 06:17:50;;;;;;;4.82;2.65;;;;;;;15.88;64.36;96315.91;10498582;28;20182;-72
2023/06/13 06:22:51;;;;;;;4.55;2.30;;;;;;;16.76;62.76;96315.72;10531559;28;20598;-72
2023/06/13 06:27:51;;;;;;;7.18;2.78;;;;;;;17.30;57.06;96233.56;10536739;28;20214;-72
2023/06/13 06:32:52;;;;;;;10.35;2.53;;;;;;;18.49;53.86;96220.53;10518069;28;20264;-72
2023/06/13 06:37:52;;;;;;;5.25;2.50;;;;;;;19.40;51.41;96206.66;10536305;28;20198;-72
2023/06/13 06:42:52;;;;;;;3.88;2.35;;;;;;;20.18;50.27;96214.78;10536291;28;20225;-73
2023/06/13 06:48:01;;;;;;;6.18;2.80;;;;;;;22.08;45.77;96167.91;10518312;28;20214;-73
2023/06/13 06:53:02;;;;;;;6.38;2.70;;;;;;;20.95;49.62;96235.97;10535642;28;20194;-71
2023/06/13 06:58:02;;;;;;;5.07;2.53;;;;;;;21.68;45.99;96175.00;10544140;28;20217;-71
2023/06/13 07:03:02;;;;;;;6.90;2.70;;;;;;;21.97;43.75;96137.63;10576338;28;20198;-72
2023/06/13 07:08:03;;;;;;;3.90;2.45;;;;;;;22.93;39.78;96076.97;10575732;28;20221;-73
2023/06/13 07:13:03;;;;;;;4.93;2.78;;;;;;;24.85;36.32;96057.47;10576213;28;20190;-72
2023/06/13 07:18:04;;;;;;;8.03;2.23;;;;;;;25.14;34.74;96034.75;10575172;28;20235;-72
2023/06/13 07:23:05;;;;;;;5.93;2.85;;;;;;;23.80;37.00;96047.56;10576094;28;20446;-72
2023/06/13 07:28:06;;;;;;;4.40;2.15;;;;;;;23.83;35.27;96015.75;10574668;28;20240;-72
2023/06/13 07:33:07;;;;;;;4.22;2.25;;;;;;;25.77;31.78;95997.78;10574949;28;20178;-73
2023/06/13 07:38:07;;;;;;;4.78;2.45;;;;;;;25.30;31.67;95988.16;10575725;28;20209;-72
2023/06/13 07:43:07;;;;;;;8.27;2.57;;;;;;;20.59;36.21;95939.75;10574892;28;20665;-72
2023/06/13 07:48:08;;;;;;;5.90;2.40;;;;;;;23.17;34.91;96018.75;10574512;28;21005;-72
2023/06/13 07:53:10;;;;;;;7.07;2.40;;;;;;;23.00;31.74;95905.81;10575078;28;20656;-73
2023/06/13 07:58:12;;;;;;;7.05;2.25;;;;;;;24.51;31.76;95974.84;10572748;28;20234;-72
2023/06/13 08:03:12;;;;;;;6.43;2.67;;;;;;;24.28;32.08;95981.47;10573168;28;20193;-72
2023/06/13 08:08:12;;;;;;;3.10;2.20;;;;;;;24.01;30.11;95904.84;10555557;28;20312;-73
2023/06/13 08:13:13;;;;;;;3.60;2.10;;;;;;;23.63;34.36;96019.09;10554521;28;20186;-73
2023/06/13 08:18:14;;;;;;;12.68;4.25;;;;;;;22.30;32.82;95924.34;10556895;28;20178;-73
2023/06/13 08:23:15;;;;;;;3.97;2.45;;;;;;;22.86;32.26;95926.78;10563469;28;20642;-72
2023/06/13 08:28:16;;;;;;;4.63;1.95;;;;;;;23.82;32.76;95989.25;10581190;28;20229;-73
2023/06/13 08:33:16;;;;;;;3.25;2.03;;;;;;;24.56;34.78;96081.19;10581789;28;20208;-73
2023/06/13 08:38:17;;;;;;;8.55;2.40;;;;;;;23.16;32.79;95958.34;10562870;28;20225;-73
2023/06/13 08:43:18;;;;;;;6.68;2.35;;;;;;;24.56;31.97;95988.28;10581442;28;20273;-72
2023/06/13 08:48:18;;;;;;;5.63;3.20;;;;;;;24.28;31.62;95967.28;10581211;28;20281;-73
2023/06/13 08:53:19;;;;;;;8.27;2.60;;;;;;;23.06;31.91;95928.81;10581471;28;20277;-73
2023/06/13 08:58:21;;;;;;;3.90;2.10;;;;;;;23.53;32.58;95967.41;10580680;28;20462;-72
2023/06/13 09:03:21;;;;;;;6.97;2.42;;;;;;;25.71;30.05;95973.88;10561625;28;20652;-72
2023/06/13 09:08:22;;;;;;;5.10;3.50;;;;;;;25.49;29.83;95963.47;10561528;28;20270;-73
2023/06/13 09:13:23;;;;;;;7.68;2.78;;;;;;;26.37;30.20;95996.25;10545508;28;20185;-72
2023/06/13 09:18:24;;;;;;;4.45;2.15;;;;;;;26.06;29.44;95951.53;10580208;28;20189;-72
2023/06/13 09:23:25;;;;;;;4.32;2.30;;;;;;;27.60;27.16;95944.38;10580051;28;20188;-73
2023/06/13 09:28:40;;;;;;;8.50;3.97;;;;;;;26.96;28.43;95952.41;10561430;28;20224;-72
2023/06/13 09:33:43;;;;;;;7.35;3.35;;;;;;;26.96;29.36;95973.13;10560167;28;20190;-72
2023/06/13 09:38:44;;;;;;;3.22;2.22;;;;;;;26.32;29.04;95933.44;10579489;28;20765;-72
2023/06/13 09:43:44;;;;;;;2.92;2.60;;;;;;;25.49;29.65;95926.72;10579362;28;20190;-72
2023/06/13 09:48:45;;;;;;;8.00;2.70;;;;;;;25.30;32.17;95996.19;10579308;28;20667;-72
2023/06/13 09:53:47;;;;;;;4.82;2.72;;;;;;;25.12;30.63;95929.69;10579145;28;20443;-72
2023/06/13 09:58:47;;;;;;;5.75;2.78;;;;;;;25.99;31.34;95976.00;10578780;28;20240;-72
2023/06/13 10:03:47;;;;;;;6.73;2.90;;;;;;;26.13;30.00;95941.31;10578630;28;20198;-72
2023/06/13 10:08:48;;;;;;;6.60;2.80;;;;;;;27.11;30.83;95996.41;10577808;28;20616;-72
2023/06/13 10:14:05;;;;;;;6.50;3.22;;;;;;;25.79;32.43;96005.56;10559702;28;20435;-72
2023/06/13 10:19:06;;;;;;;4.80;2.53;;;;;;;25.45;31.46;95944.41;10560382;28;20178;-72
2023/06/13 10:24:07;;;;;;;4.75;2.80;;;;;;;25.58;32.10;95970.69;10559881;28;20564;-72
2023/06/13 10:29:19;;;;;;;5.65;2.95;;;;;;;24.88;32.85;95960.47;10525228;28;20361;-72
2023/06/13 10:34:42;;;;;;;7.47;2.63;;;;;;;25.16;31.06;95928.88;10490061;28;20667;-72
2023/06/13 10:40:27;;;;;;;6.00;2.70;;;;;;;23.96;33.24;95928.09;10533556;28;20223;-71
2023/06/13 10:45:30;;;;;;;6.72;2.67;;;;;;;23.82;35.25;95995.41;10498858;28;20197;-72
2023/06/13 10:50:38;;;;;;;4.63;3.00;;;;;;;24.26;32.14;95914.03;10510428;28;20247;-72
2023/06/13 10:55:40;;;;;;;7.50;2.70;;;;;;;23.75;35.00;95977.97;10511122;28;20186;-72
2023/06/13 11:00:40;;;;;;;4.82;2.92;;;;;;;22.96;37.24;96015.03;10508798;28;20762;-72
2023/06/13 11:05:50;;;;;;;5.38;3.00;;;;;;;23.29;37.80;96037.25;10524849;28;20947;-72
2023/06/13 11:10:52;;;;;;;6.95;3.05;;;;;;;21.96;38.97;96016.00;10524747;28;20230;-72
2023/06/13 11:15:54;;;;;;;4.10;2.97;;;;;;;22.26;39.76;96042.25;10526320;28;20187;-72
2023/06/13 11:20:59;;;;;;;4.97;3.00;;;;;;;23.74;36.81;96014.63;10526782;28;20198;-72
2023/06/13 11:25:59;;;;;;;4.00;2.80;;;;;;;26.03;34.69;96023.75;10493617;28;20191;-73
2023/06/13 11:31:03;;;;;;;5.43;3.22;;;;;;;27.02;32.02;95970.13;10483956;28;20198;-73
2023/06/13 11:36:04;;;;;;;3.45;2.70;;;;;;;27.76;31.76;95988.88;10484189;28;20187;-72
2023/06/13 11:41:05;;;;;;;7.72;3.42;;;;;;;27.48;30.32;95934.00;10506493;28;20214;-72
2023/06/13 11:46:55;;;;;;;4.63;2.78;;;;;;;28.55;30.46;95978.84;10525176;28;20201;-73
2023/06/13 11:51:55;;;;;;;2.95;2.63;;;;;;;29.11;28.37;95905.25;10519955;28;20207;-73
2023/06/13 11:56:56;;;;;;;3.73;3.27;;;;;;;29.04;29.83;95947.19;10504838;28;20550;-73
2023/06/13 12:01:56;;;;;;;7.23;3.43;;;;;;;27.61;31.50;95940.56;10503937;28;20484;-73
2023/06/13 12:06:57;;;;;;;5.68;3.42;;;;;;;23.24;37.82;96002.47;10505876;28;20448;-72
2023/06/13 12:11:58;;;;;;;8.20;3.33;;;;;;;20.95;40.94;95987.50;10503218;28;20270;-72
2023/06/13 12:16:59;;;;;;;11.80;3.65;;;;;;;19.48;51.46;96211.69;10476760;28;20191;-73
2023/06/13 12:21:59;;;;;;;22.85;5.47;;;;;;;16.92;68.17;96370.09;10475045;28;20627;-74
2023/06/13 12:27:02;;;;;;;6.75;4.03;;;;;;;14.41;78.55;96351.94;10473120;28;20187;-73
2023/06/13 12:32:03;;;;;;;12.68;5.35;;;;;;;13.89;89.97;96349.44;10477713;28;20203;-74
2023/06/13 12:37:06;;;;;;;12.90;7.30;;;;;;;14.08;100.00;96347.19;10495636;28;20211;-75
2023/06/13 12:42:10;;;;;;;7.63;4.70;;;;;;;14.23;100.00;96318.16;10495607;28;20310;-73
2023/06/13 12:47:11;;;;;;;15.43;5.18;;;;;;;14.00;100.00;96294.66;10494567;28;20554;-74
2023/06/13 12:52:15;;;;;;;7.68;4.60;;;;;;;14.90;100.00;96292.28;10493259;28;20180;-75
2023/06/13 12:57:16;;;;;;;9.38;5.07;;;;;;;14.28;100.00;96305.22;10495500;28;20191;-74
2023/06/13 13:02:17;;;;;;;6.32;4.47;;;;;;;14.30;100.00;96295.28;10493871;28;20223;-74
2023/06/13 13:07:17;;;;;;;10.55;5.28;;;;;;;13.60;100.00;96302.13;10494325;28;20191;-75
2023/06/13 13:12:19;;;;;;;7.05;5.50;;;;;;;13.12;100.00;96284.91;10471709;28;20192;-74
2023/06/13 13:17:19;;;;;;;12.02;6.50;;;;;;;13.08;100.00;96294.19;10459226;28;20207;-74
2023/06/13 13:22:21;;;;;;;9.23;5.53;;;;;;;13.07;100.00;96300.44;10493535;28;20231;-74
2023/06/13 13:27:21;;;;;;;9.77;6.13;;;;;;;13.18;100.00;96300.00;10491868;28;20190;-75
2023/06/13 13:32:22;;;;;;;10.65;6.30;;;;;;;13.48;100.00;96291.28;10492944;28;20585;-76
2023/06/13 13:37:22;;;;;;;11.43;6.47;;;;;;;14.45;100.00;96280.22;10494158;28;20215;-75
2023/06/13 13:42:22;;;;;;;5.90;4.93;;;;;;;15.43;100.00;96276.72;10493143;28;20223;-74
2023/06/13 13:47:23;;;;;;;6.88;4.70;;;;;;;16.37;100.00;96261.03;10493680;28;20285;-73
2023/06/13 13:52:24;;;;;;;10.80;5.30;;;;;;;17.13;100.00;96243.03;10491784;28;20179;-74
2023/06/13 13:57:24;;;;;;;9.82;4.97;;;;;;;17.62;91.82;96213.22;10492651;28;20194;-73
2023/06/13 14:02:25;;;;;;;9.07;4.63;;;;;;;20.29;75.25;96150.94;10491305;28;20600;-74
2023/06/13 14:07:25;;;;;;;6.65;4.18;;;;;;;20.63;70.60;96143.16;10490775;28;20840;-74
2023/06/13 14:12:26;;;;;;;7.30;4.25;;;;;;;19.32;69.75;96125.47;10492049;28;20195;-73
2023/06/13 14:17:27;;;;;;;8.70;3.85;;;;;;;21.71;54.39;95966.56;10492072;28;20257;-73
2023/06/13 14:22:27;;;;;;;6.90;3.50;;;;;;;25.15;52.05;96029.13;10490881;28;20590;-74
2023/06/13 14:27:27;;;;;;;5.23;3.50;;;;;;;27.28;40.66;95877.69;10477691;28;20574;-74
2023/06/13 14:32:28;;;;;;;6.97;3.83;;;;;;;27.75;40.22;95930.75;10491144;28;20794;-74
2023/06/13 14:37:29;;;;;;;7.30;3.70;;;;;;;26.97;37.38;95859.13;10486415;28;20227;-76
2023/06/13 14:42:30;;;;;;;7.40;3.78;;;;;;;27.68;36.27;95854.94;10462335;28;20481;-76
2023/06/13 14:47:30;;;;;;;7.03;3.42;;;;;;;25.84;38.52;95863.31;10470601;28;20569;-77
2023/06/13 14:52:30;;;;;;;6.60;3.90;;;;;;;26.31;38.19;95872.75;10465098;28;20282;-76
2023/06/13 14:57:31;;;;;;;6.23;3.50;;;;;;;26.85;36.47;95835.34;10489823;28;20437;-75
2023/06/13 15:02:33;;;;;;;6.53;3.85;;;;;;;26.25;40.30;95922.22;10490580;28;20518;-76
2023/06/13 15:07:33;;;;;;;6.03;3.13;;;;;;;27.88;35.80;95870.03;10490228;28;20213;-76
2023/06/13 15:12:33;;;;;;;6.53;3.10;;;;;;;28.02;35.26;95845.13;10490347;28;20193;-77
2023/06/13 15:17:34;;;;;;;4.13;3.20;;;;;;;27.09;37.76;95916.03;10468285;28;20454;-77
2023/06/13 15:22:34;;;;;;;7.53;3.42;;;;;;;26.55;35.63;95831.78;10448748;28;20482;-77
2023/06/13 15:27:35;;;;;;;3.40;3.03;;;;;;;26.67;37.71;95896.72;10472071;28;20688;-79
2023/06/13 15:32:36;;;;;;;5.72;3.00;;;;;;;26.77;36.62;95881.59;10489915;28;20213;-77
2023/06/13 15:37:36;;;;;;;9.02;3.28;;;;;;;24.45;41.62;95933.06;10490113;28;20287;-77
2023/06/13 15:42:36;;;;;;;6.65;3.72;;;;;;;21.30;45.59;95935.84;10489666;28;20211;-77
2023/06/13 15:47:37;;;;;;;6.13;3.70;;;;;;;20.80;45.17;95930.28;10489691;28;20270;-76
2023/06/13 15:52:37;;;;;;;9.70;3.45;;;;;;;21.51;43.29;95924.47;10497465;28;20191;-77
2023/06/13 15:57:38;;;;;;;5.60;3.50;;;;;;;21.97;43.86;95947.47;10496029;28;20220;-77
2023/06/13 16:02:38;;;;;;;6.97;3.45;;;;;;;23.40;40.67;95917.88;10459747;28;20236;-77
2023/06/13 16:07:38;;;;;;;6.57;3.67;;;;;;;22.71;42.37;95954.97;10467759;28;20196;-75
2023/06/13 16:12:39;;;;;;;11.60;3.88;;;;;;;21.55;44.01;95957.56;10474317;28;20602;-75
2023/06/13 16:17:39;;;;;;;8.20;3.58;;;;;;;21.10;46.09;95994.94;10462127;28;20686;-76
2023/06/13 16:22:50;;;;;;;7.20;4.00;;;;;;;20.85;44.52;95942.88;10459083;28;20754;-75
2023/06/13 16:27:51;;;;;;;7.60;4.28;;;;;;;20.64;45.70;95989.59;10474550;28;20203;-75
2023/06/13 16:32:51;;;;;;;11.30;4.35;;;;;;;20.44;46.25;95995.34;10487166;28;20183;-74
2023/06/13 16:37:52;;;;;;;8.57;4.10;;;;;;;20.58;44.31;95951.44;10471327;28;20223;-75
2023/06/13 16:42:52;;;;;;;7.57;3.88;;;;;;;20.29;46.81;96001.97;10452518;28;20335;-75
2023/06/13 16:47:52;;;;;;;7.63;4.20;;;;;;;19.68;47.97;96022.72;10454433;28;20196;-75
2023/06/13 16:52:54;;;;;;;9.20;4.40;;;;;;;19.40;49.38;96050.78;10455801;28;20188;-75
2023/06/13 16:57:55;;;;;;;6.60;4.10;;;;;;;19.49;48.79;96053.88;10454237;28;20227;-75
2023/06/13 17:02:56;;;;;;;7.88;4.05;;;;;;;19.17;50.58;96083.41;10454872;28;20311;-75
2023/06/13 17:07:56;;;;;;;13.80;4.70;;;;;;;18.98;52.77;96119.00;10454605;28;20204;-75
2023/06/13 17:12:56;;;;;;;15.68;5.13;;;;;;;18.54;55.29;96159.69;10454518;28;20187;-75
2023/06/13 17:17:57;;;;;;;6.93;5.13;;;;;;;18.60;55.46;96160.63;10454194;28;20245;-75
2023/06/13 17:22:57;;;;;;;11.10;4.40;;;;;;;18.34;55.74;96151.13;10452368;28;20223;-75
2023/06/13 17:27:58;;;;;;;6.97;4.38;;;;;;;18.25;57.53;96184.25;10464651;28;20190;-75
2023/06/13 17:32:58;;;;;;;10.60;4.45;;;;;;;17.84;57.25;96165.22;10479248;28;20195;-74
2023/06/13 17:37:58;;;;;;;11.25;4.85;;;;;;;17.79;56.81;96155.25;10473802;28;20325;-75
2023/06/13 17:42:59;;;;;;;8.70;3.92;;;;;;;17.88;56.50;96149.69;10468030;28;20310;-75
2023/06/13 17:47:59;;;;;;;5.35;3.63;;;;;;;17.95;56.51;96153.13;10470761;28;20191;-75
2023/06/13 17:52:59;;;;;;;6.57;3.80;;;;;;;17.64;56.82;96154.72;10470671;28;20245;-75
2023/06/13 17:58:01;;;;;;;6.53;3.47;;;;;;;17.46;56.11;96140.41;10471623;28;20270;-75
2023/06/13 18:03:01;;;;;;;6.95;3.40;;;;;;;16.93;56.38;96138.06;10470990;28;20227;-75
2023/06/13 18:08:01;;;;;;;9.60;4.68;;;;;;;16.44;57.82;96155.28;10470840;28;20596;-75
2023/06/13 18:13:02;;;;;;;6.68;3.58;;;;;;;16.40;58.09;96163.63;10471401;28;20183;-75
2023/06/13 18:18:02;;;;;;;9.30;3.63;;;;;;;16.19;59.44;96174.44;10473241;28;20192;-75
2023/06/13 18:23:05;;;;;;;8.13;4.13;;;;;;;16.02;59.41;96172.22;10469360;28;20219;-75
2023/06/13 18:28:06;;;;;;;7.65;3.55;;;;;;;15.70;61.53;96208.16;10457828;28;20636;-75
2023/06/13 18:33:08;;;;;;;6.63;3.85;;;;;;;15.37;64.77;96245.84;10492083;28;20274;-75
2023/06/13 18:38:08;;;;;;;7.30;3.88;;;;;;;15.24;65.66;96262.44;10492012;28;20260;-75
2023/06/13 18:43:08;;;;;;;8.07;3.90;;;;;;;14.97;67.50;96277.31;10491573;28;20223;-75
2023/06/13 18:48:09;;;;;;;6.78;3.50;;;;;;;14.66;68.23;96278.56;10491569;28;20198;-75
2023/06/13 18:53:09;;;;;;;5.57;3.83;;;;;;;14.41;69.62;96296.59;10491066;28;20187;-75
2023/06/13 18:58:09;;;;;;;5.20;3.47;;;;;;;14.19;71.57;96299.25;10492064;28;20217;-74
2023/06/13 19:03:10;;;;;;;8.05;4.03;;;;;;;14.11;72.67;96325.75;10490303;28;20231;-74
2023/06/13 19:08:10;;;;;;;8.65;3.38;;;;;;;13.91;73.91;96330.81;10491165;28;20187;-75
2023/06/13 19:13:12;;;;;;;3.75;3.28;;;;;;;13.73;73.43;96312.78;10490643;28;20187;-74
2023/06/13 19:18:13;;;;;;;6.07;3.67;;;;;;;13.54;75.00;96330.00;10491328;28;20192;-75
2023/06/13 19:23:14;;;;;;;6.40;3.40;;;;;;;13.11;75.65;96335.91;10491516;28;20225;-76
2023/06/13 19:28:15;;;;;;;6.53;3.20;;;;;;;12.70;78.14;96353.91;10478527;28;20196;-76
2023/06/13 19:33:16;;;;;;;4.32;3.35;;;;;;;12.65;78.56;96351.84;10475709;28;20210;-74
2023/06/13 19:38:19;;;;;;;5.30;2.92;;;;;;;12.46;79.72;96348.69;10492619;28;20595;-74
2023/06/13 19:43:19;;;;;;;5.40;3.55;;;;;;;12.44;79.86;96361.19;10498423;28;20310;-74
2023/06/13 19:48:20;;;;;;;6.07;3.15;;;;;;;12.36;80.64;96373.56;10498573;28;20218;-74
2023/06/13 19:53:21;;;;;;;8.15;3.17;;;;;;;12.12;82.80;96391.94;10498323;28;20236;-75
2023/06/13 19:58:22;;;;;;;5.13;3.40;;;;;;;12.01;85.98;96397.59;10494599;28;20206;-77
2023/06/13 20:03:22;;;;;;;4.45;3.10;;;;;;;11.83;87.08;96389.94;10455964;28;20240;-77
2023/06/13 20:08:23;;;;;;;3.40;2.88;;;;;;;11.78;87.07;96398.34;10456136;28;20199;-75
2023/06/13 20:13:23;;;;;;;6.20;3.10;;;;;;;11.71;87.33;96391.34;10456243;28;20194;-74
2023/06/13 20:18:23;;;;;;;6.82;3.13;;;;;;;11.72;85.06;96385.91;10455765;28;20195;-74
2023/06/13 20:23:24;;;;;;;4.33;2.77;;;;;;;11.71;84.77;96386.88;10455614;28;20273;-74
2023/06/13 20:28:24;;;;;;;5.03;3.17;;;;;;;11.68;84.68;96389.84;10455642;28;20401;-75
2023/06/13 20:33:25;;;;;;;4.15;2.67;;;;;;;11.47;86.03;96381.75;10455509;28;20279;-74
2023/06/13 20:38:28;;;;;;;4.38;2.80;;;;;;;11.31;88.70;96407.06;10455754;28;20220;-76
2023/06/13 20:43:29;;;;;;;3.83;3.03;;;;;;;11.07;91.20;96415.78;10455508;28;20257;-74
2023/06/13 20:48:29;;;;;;;7.25;3.17;;;;;;;10.79;96.68;96424.03;10455846;28;20196;-74
2023/06/13 20:53:30;;;;;;;5.18;3.35;;;;;;;10.96;97.91;96429.25;10454718;28;20199;-74
2023/06/13 20:58:31;;;;;;;4.18;3.17;;;;;;;10.62;100.00;96431.06;10455487;28;20286;-74
2023/06/13 21:03:35;;;;;;;4.80;3.20;;;;;;;10.62;100.00;96435.50;10454753;28;20235;-74
2023/06/13 21:08:35;;;;;;;5.07;3.03;;;;;;;10.57;100.00;96437.81;10455037;28;20196;-74
2023/06/13 21:13:36;;;;;;;4.73;3.00;;;;;;;10.36;100.00;96444.31;10454635;28;20230;-76
2023/06/13 21:18:36;;;;;;;4.93;3.10;;;;;;;10.24;100.00;96443.75;10454273;28;20298;-76
2023/06/13 21:23:36;;;;;;;4.33;3.17;;;;;;;10.08;100.00;96459.47;10454504;28;20219;-76
2023/06/13 21:28:37;;;;;;;8.30;3.33;;;;;;;10.09;100.00;96442.75;10453964;28;20191;-77
2023/06/13 21:33:37;;;;;;;4.53;3.37;;;;;;;10.06;100.00;96456.16;10453944;28;20215;-77
2023/06/13 21:38:38;;;;;;;6.00;3.73;;;;;;;10.23;100.00;96455.22;10453958;28;20207;-76
2023/06/13 21:43:38;;;;;;;6.10;3.50;;;;;;;10.16;100.00;96460.28;10453316;28;20310;-76
2023/06/13 21:48:39;;;;;;;5.10;3.40;;;;;;;9.80;100.00;96464.91;10452322;28;20199;-77
2023/06/13 21:53:40;;;;;;;6.17;3.97;;;;;;;9.82;100.00;96468.19;10452936;28;20191;-74
2023/06/13 21:58:40;;;;;;;5.93;3.73;;;;;;;9.82;100.00;96473.44;10453349;28;20192;-74
2023/06/13 22:03:41;;;;;;;5.07;3.67;;;;;;;9.90;100.00;96468.22;10451855;28;20466;-74
2023/06/13 22:08:41;;;;;;;4.40;3.60;;;;;;;9.90;100.00;96464.78;10452568;28;20196;-74
2023/06/13 22:13:42;;;;;;;4.40;3.70;;;;;;;9.87;100.00;96468.53;10451430;28;20218;-74
2023/06/13 22:18:44;;;;;;;6.27;3.53;;;;;;;9.74;100.00;96470.75;10451791;28;20680;-74
2023/06/13 22:23:44;;;;;;;5.27;3.90;;;;;;;9.85;100.00;96473.13;10451593;28;20363;-74
2023/06/13 22:28:44;;;;;;;4.00;3.43;;;;;;;9.90;100.00;96462.97;10450294;28;20287;-74
2023/06/13 22:33:45;;;;;;;6.37;3.73;;;;;;;9.91;100.00;96464.63;10451122;28;20200;-74
2023/06/13 22:38:45;;;;;;;5.43;3.93;;;;;;;9.87;100.00;96480.81;10451259;28;20302;-75
2023/06/13 22:43:45;;;;;;;6.77;3.90;;;;;;;9.42;100.00;96487.94;10451156;28;20243;-74
2023/06/13 22:48:47;;;;;;;5.70;4.07;;;;;;;9.44;100.00;96486.00;10450976;28;20262;-74
2023/06/13 22:53:48;;;;;;;5.07;3.60;;;;;;;9.42;100.00;96488.75;10451130;28;20675;-77
2023/06/13 22:58:48;;;;;;;5.77;4.00;;;;;;;9.21;100.00;96488.31;10450726;28;20198;-76
2023/06/13 23:03:48;;;;;;;5.43;3.40;;;;;;;9.11;100.00;96485.78;10450330;28;20228;-74
2023/06/13 23:08:49;;;;;;;6.60;4.00;;;;;;;9.00;100.00;96484.22;10451076;28;20215;-74
2023/06/13 23:13:49;;;;;;;4.47;4.00;;;;;;;8.79;100.00;96484.59;10450450;28;20222;-76
2023/06/13 23:18:50;;;;;;;5.17;4.20;;;;;;;8.49;100.00;96491.00;10450606;28;20230;-75
2023/06/13 23:23:51;;;;;;;7.37;5.07;;;;;;;8.46;100.00;96497.31;10450145;28;20219;-75
2023/06/13 23:28:51;;;;;;;7.07;4.13;;;;;;;8.31;100.00;96496.16;10450431;28;20252;-75